sensor_id;sensor_type;location;lat;lon;timestamp;P1;durP1;ratioP1;P2;durP2;ratioP2
65053;SDS011;51639;47.828;35.038;2023-08-06T00:02:53;13.43;;;8.50;;
65053;SDS011;51639;47.828;35.038;2023-08-06T00:17:56;11.32;;;7.50;;
65053;SDS011;51639;47.828;35.038;2023-08-06T00:32:58;12.50;;;9.52;;
65053;SDS011;51639;47.828;35.038;2023-08-06T00:48:01;19.23;;;7.72;;
65053;SDS011;51639;47.828;35.038;2023-08-06T01:03:05;9.23;;;7.45;;
65053;SDS011;51639;47.828;35.038;2023-08-06T01:18:07;16.02;;;8.93;;
65053;SDS011;51639;47.828;35.038;2023-08-06T01:33:10;15.93;;;8.05;;
65053;SDS011;51639;47.828;35.038;2023-08-06T01:48:21;14.60;;;8.73;;
65053;SDS011;51639;47.828;35.038;2023-08-06T02:03:23;16.70;;;8.10;;
65053;SDS011;51639;47.828;35.038;2023-08-06T02:18:25;11.63;;;8.00;;
65053;SDS011;51639;47.828;35.038;2023-08-06T02:33:27;13.52;;;8.07;;
65053;SDS011;51639;47.828;35.038;2023-08-06T02:48:29;13.65;;;7.80;;
65053;SDS011;51639;47.828;35.038;2023-08-06T03:03:31;11.60;;;8.13;;
65053;SDS011;51639;47.828;35.038;2023-08-06T03:18:33;10.60;;;7.85;;
65053;SDS011;51639;47.828;35.038;2023-08-06T03:33:35;17.90;;;8.43;;
65053;SDS011;51639;47.828;35.038;2023-08-06T03:48:37;11.23;;;7.40;;
65053;SDS011;51639;47.828;35.038;2023-08-06T04:03:39;12.40;;;6.93;;
65053;SDS011;51639;47.828;35.038;2023-08-06T04:18:41;11.85;;;7.70;;
65053;SDS011;51639;47.828;35.038;2023-08-06T04:33:43;12.70;;;8.23;;
65053;SDS011;51639;47.828;35.038;2023-08-06T04:48:45;13.98;;;8.18;;
65053;SDS011;51639;47.828;35.038;2023-08-06T05:03:47;13.15;;;7.82;;
65053;SDS011;51639;47.828;35.038;2023-08-06T05:18:49;15.15;;;7.30;;
65053;SDS011;51639;47.828;35.038;2023-08-06T05:33:51;9.13;;;6.90;;
65053;SDS011;51639;47.828;35.038;2023-08-06T05:48:53;11.13;;;6.32;;
65053;SDS011;51639;47.828;35.038;2023-08-06T06:03:55;10.35;;;6.80;;
65053;SDS011;51639;47.828;35.038;2023-08-06T06:18:57;9.40;;;6.47;;
65053;SDS011;51639;47.828;35.038;2023-08-06T06:33:59;7.55;;;5.72;;
65053;SDS011;51639;47.828;35.038;2023-08-06T06:49:01;10.90;;;5.80;;
65053;SDS011;51639;47.828;35.038;2023-08-06T07:04:03;7.15;;;5.60;;
65053;SDS011;51639;47.828;35.038;2023-08-06T07:19:06;9.13;;;5.40;;
65053;SDS011;51639;47.828;35.038;2023-08-06T07:34:08;7.78;;;4.78;;
65053;SDS011;51639;47.828;35.038;2023-08-06T07:49:10;14.57;;;4.88;;
65053;SDS011;51639;47.828;35.038;2023-08-06T08:04:12;15.65;;;3.70;;
65053;SDS011;51639;47.828;35.038;2023-08-06T08:19:14;15.05;;;3.67;;
65053;SDS011;51639;47.828;35.038;2023-08-06T08:34:17;9.98;;;3.30;;
65053;SDS011;51639;47.828;35.038;2023-08-06T08:49:20;9.70;;;3.17;;
65053;SDS011;51639;47.828;35.038;2023-08-06T09:04:25;11.52;;;4.10;;
65053;SDS011;51639;47.828;35.038;2023-08-06T09:19:29;11.90;;;3.67;;
65053;SDS011;51639;47.828;35.038;2023-08-06T09:34:31;7.07;;;4.10;;
65053;SDS011;51639;47.828;35.038;2023-08-06T10:04:35;10.20;;;3.20;;
65053;SDS011;51639;47.828;35.038;2023-08-06T10:19:42;3.92;;;2.80;;
65053;SDS011;51639;47.828;35.038;2023-08-06T10:34:54;10.18;;;2.10;;
65053;SDS011;51639;47.828;35.038;2023-08-06T11:05:08;3.33;;;1.70;;
65053;SDS011;51639;47.828;35.038;2023-08-06T11:20:11;10.43;;;2.05;;
65053;SDS011;51639;47.828;35.038;2023-08-06T11:35:18;4.25;;;1.60;;
65053;SDS011;51639;47.828;35.038;2023-08-06T11:50:24;2.80;;;1.92;;
65053;SDS011;51639;47.828;35.038;2023-08-06T12:05:29;4.60;;;2.38;;
65053;SDS011;51639;47.828;35.038;2023-08-06T12:20:32;4.18;;;2.88;;
65053;SDS011;51639;47.828;35.038;2023-08-06T12:35:34;4.22;;;3.17;;
65053;SDS011;51639;47.828;35.038;2023-08-06T12:50:37;8.35;;;3.05;;
65053;SDS011;51639;47.828;35.038;2023-08-06T13:05:39;10.20;;;3.60;;
65053;SDS011;51639;47.828;35.038;2023-08-06T13:20:41;9.88;;;4.78;;
65053;SDS011;51639;47.828;35.038;2023-08-06T13:35:43;11.27;;;4.50;;
65053;SDS011;51639;47.828;35.038;2023-08-06T13:50:45;14.05;;;4.82;;
65053;SDS011;51639;47.828;35.038;2023-08-06T14:05:47;9.68;;;4.93;;
65053;SDS011;51639;47.828;35.038;2023-08-06T14:20:49;6.72;;;4.22;;
65053;SDS011;51639;47.828;35.038;2023-08-06T14:35:51;6.53;;;4.15;;
65053;SDS011;51639;47.828;35.038;2023-08-06T14:50:55;8.65;;;4.35;;
65053;SDS011;51639;47.828;35.038;2023-08-06T15:05:57;6.47;;;2.78;;
65053;SDS011;51639;47.828;35.038;2023-08-06T15:20:59;6.82;;;4.05;;
65053;SDS011;51639;47.828;35.038;2023-08-06T15:36:02;8.20;;;4.25;;
65053;SDS011;51639;47.828;35.038;2023-08-06T15:51:04;8.57;;;5.00;;
65053;SDS011;51639;47.828;35.038;2023-08-06T16:06:06;9.65;;;5.47;;
65053;SDS011;51639;47.828;35.038;2023-08-06T16:21:09;9.23;;;4.82;;
65053;SDS011;51639;47.828;35.038;2023-08-06T16:36:11;9.57;;;4.57;;
65053;SDS011;51639;47.828;35.038;2023-08-06T16:51:13;13.30;;;5.22;;
65053;SDS011;51639;47.828;35.038;2023-08-06T17:06:17;8.50;;;5.47;;
65053;SDS011;51639;47.828;35.038;2023-08-06T17:21:19;12.82;;;6.95;;
65053;SDS011;51639;47.828;35.038;2023-08-06T17:36:21;13.13;;;6.45;;
65053;SDS011;51639;47.828;35.038;2023-08-06T17:51:24;16.25;;;7.03;;
65053;SDS011;51639;47.828;35.038;2023-08-06T18:06:26;10.20;;;5.35;;
65053;SDS011;51639;47.828;35.038;2023-08-06T18:21:28;11.88;;;5.00;;
65053;SDS011;51639;47.828;35.038;2023-08-06T18:36:30;10.25;;;5.88;;
65053;SDS011;51639;47.828;35.038;2023-08-06T18:51:32;16.92;;;7.95;;
65053;SDS011;51639;47.828;35.038;2023-08-06T19:06:34;17.27;;;9.20;;
65053;SDS011;51639;47.828;35.038;2023-08-06T19:21:36;14.73;;;8.60;;
65053;SDS011;51639;47.828;35.038;2023-08-06T19:36:38;22.65;;;9.18;;
65053;SDS011;51639;47.828;35.038;2023-08-06T19:51:40;19.20;;;10.10;;
65053;SDS011;51639;47.828;35.038;2023-08-06T20:06:42;20.95;;;11.68;;
65053;SDS011;51639;47.828;35.038;2023-08-06T20:21:44;17.90;;;9.65;;
65053;SDS011;51639;47.828;35.038;2023-08-06T20:36:46;12.95;;;8.65;;
65053;SDS011;51639;47.828;35.038;2023-08-06T20:51:48;15.82;;;9.38;;
65053;SDS011;51639;47.828;35.038;2023-08-06T21:06:50;16.88;;;9.18;;
65053;SDS011;51639;47.828;35.038;2023-08-06T21:21:52;13.88;;;8.75;;
65053;SDS011;51639;47.828;35.038;2023-08-06T21:36:56;19.40;;;8.98;;
65053;SDS011;51639;47.828;35.038;2023-08-06T21:51:58;14.02;;;8.40;;
65053;SDS011;51639;47.828;35.038;2023-08-06T22:07:00;12.45;;;8.98;;
65053;SDS011;51639;47.828;35.038;2023-08-06T22:22:02;14.23;;;8.32;;
65053;SDS011;51639;47.828;35.038;2023-08-06T22:37:04;14.65;;;7.93;;
65053;SDS011;51639;47.828;35.038;2023-08-06T22:52:07;15.52;;;8.57;;
65053;SDS011;51639;47.828;35.038;2023-08-06T23:07:09;13.00;;;8.68;;
65053;SDS011;51639;47.828;35.038;2023-08-06T23:22:11;15.35;;;8.00;;
65053;SDS011;51639;47.828;35.038;2023-08-06T23:37:13;8.95;;;7.25;;
65053;SDS011;51639;47.828;35.038;2023-08-06T23:52:15;15.43;;;6.95;;
